Time;durP1;ratioP1;P1;durP2;ratioP2;P2;SDS_P1;SDS_P2;PMS_P1;PMS_P2;Temp;Humidity;BMP_temperature;BMP_pressure;BME280_temperature;BME280_humidity;BME280_pressure;Samples;Min_cycle;Max_cycle;Signal;HPM_P1;HPM_P2
2021/11/10 00:01:50;;;;;;;10.63;4.65;;;7.70;95.50;;;5.08;100.00;101506.63;5044625;28;20041;-88
2021/11/10 00:04:19;;;;;;;8.48;3.85;;;7.60;95.40;;;5.02;100.00;101504.41;5047047;28;20041;-88
2021/11/10 00:06:46;;;;;;;8.80;3.22;;;7.60;95.50;;;4.98;100.00;101502.94;5033958;28;20084;-88
2021/11/10 00:09:14;;;;;;;15.82;4.00;;;7.60;95.50;;;4.96;100.00;101501.34;5034665;28;20071;-88
2021/11/10 00:11:41;;;;;;;9.65;3.70;;;7.60;95.50;;;4.96;100.00;101502.19;5047150;28;20048;-88
2021/11/10 00:14:08;;;;;;;7.57;3.38;;;7.50;95.60;;;4.99;100.00;101504.66;5047042;28;20507;-88
2021/11/10 00:16:37;;;;;;;11.13;3.60;;;7.50;95.70;;;5.03;100.00;101495.34;5048339;28;20048;-87
2021/11/10 00:19:06;;;;;;;10.80;3.95;;;7.50;95.80;;;5.01;100.00;101485.66;5047779;28;20118;-88
2021/11/10 00:21:33;;;;;;;10.82;3.90;;;7.50;95.80;;;4.91;100.00;101490.91;5048609;28;20565;-88
2021/11/10 00:24:02;;;;;;;8.68;3.83;;;7.50;95.70;;;4.80;100.00;101480.16;5047058;28;20045;-88
2021/11/10 00:26:29;;;;;;;7.32;3.70;;;7.40;95.50;;;4.67;100.00;101481.13;5046994;28;20041;-87
2021/11/10 00:28:57;;;;;;;8.75;3.85;;;7.40;95.50;;;4.60;100.00;101477.19;5047599;28;20106;-88
2021/11/10 00:31:25;;;;;;;9.65;3.30;;;7.40;95.40;;;4.50;100.00;101478.91;5048458;28;20044;-87
2021/11/10 00:33:53;;;;;;;10.25;3.65;;;7.30;95.40;;;4.46;100.00;101480.16;5045663;28;20049;-87
2021/11/10 00:36:21;;;;;;;10.90;3.78;;;7.30;95.50;;;4.46;100.00;101483.69;5044112;28;20080;-88
2021/11/10 00:38:48;;;;;;;8.27;3.10;;;7.20;95.50;;;4.46;100.00;101480.16;5026267;28;20056;-87
2021/11/10 00:41:16;;;;;;;9.38;3.90;;;7.20;95.50;;;4.40;100.00;101468.00;5028420;28;20545;-88
2021/11/10 00:43:43;;;;;;;10.27;3.70;;;7.20;95.50;;;4.37;100.00;101470.09;5028172;28;20061;-87
2021/11/10 00:46:11;;;;;;;8.02;3.58;;;7.20;95.50;;;4.27;100.00;101472.66;5028416;28;20049;-87
2021/11/10 00:48:38;;;;;;;10.65;4.00;;;7.10;95.50;;;4.26;100.00;101476.31;5027444;28;20133;-87
2021/11/10 00:51:07;;;;;;;10.85;3.78;;;7.00;95.40;;;4.21;100.00;101475.84;5033352;28;20064;-87
2021/11/10 00:53:35;;;;;;;11.65;4.53;;;7.00;95.40;;;4.16;100.00;101472.63;5041995;28;20133;-88
2021/11/10 00:56:04;;;;;;;7.78;3.67;;;7.00;95.40;;;4.11;100.00;101483.75;5026738;28;20045;-88
2021/11/10 00:58:31;;;;;;;8.70;3.58;;;6.90;95.50;;;4.09;100.00;101477.63;5026114;28;20099;-87
2021/11/10 01:00:59;;;;;;;11.43;3.72;;;6.90;95.70;;;4.04;100.00;101482.53;5026648;28;20076;-87
2021/11/10 01:03:27;;;;;;;11.25;4.00;;;6.90;95.60;;;4.02;100.00;101476.41;5026709;28;20519;-87
2021/11/10 01:05:55;;;;;;;14.10;4.40;;;6.80;95.60;;;4.01;100.00;101464.75;5026754;28;20182;-88
2021/11/10 01:08:24;;;;;;;11.68;5.22;;;6.80;95.60;;;3.94;100.00;101473.41;5046358;28;20563;-87
2021/11/10 01:10:52;;;;;;;15.13;4.85;;;6.80;95.60;;;3.89;100.00;101474.63;5052159;28;20557;-87
2021/11/10 01:13:20;;;;;;;10.25;4.95;;;6.70;95.50;;;3.86;100.00;101469.47;5051970;28;20049;-88
2021/11/10 01:15:48;;;;;;;10.45;4.82;;;6.60;95.50;;;3.87;100.00;101470.34;5050447;28;20041;-88
2021/11/10 01:18:15;;;;;;;13.90;4.80;;;6.70;95.50;;;3.84;100.00;101468.72;5051292;28;20048;-88
2021/11/10 01:20:43;;;;;;;7.85;4.72;;;6.60;95.50;;;3.84;100.00;101457.97;5051799;28;20041;-87
2021/11/10 01:23:12;;;;;;;11.75;5.32;;;6.60;95.60;;;3.84;100.00;101452.56;5049147;28;20048;-87
2021/11/10 01:25:41;;;;;;;9.60;4.97;;;6.60;95.70;;;3.79;100.00;101457.47;5036694;28;20140;-87
2021/11/10 01:28:10;;;;;;;8.13;4.13;;;6.60;95.60;;;3.69;100.00;101460.03;5037826;28;20065;-87
2021/11/10 01:30:40;;;;;;;9.18;4.38;;;6.50;95.60;;;3.64;100.00;101467.56;5050073;28;20063;-87
2021/11/10 01:33:08;;;;;;;8.07;4.72;;;6.50;95.60;;;3.65;100.00;101457.66;5050111;28;20130;-88
2021/11/10 01:35:35;;;;;;;13.10;5.70;;;6.40;95.50;;;3.67;100.00;101453.00;5052324;28;20413;-87
2021/11/10 01:38:03;;;;;;;14.13;4.97;;;6.40;95.70;;;3.70;100.00;101455.47;5048347;28;20048;-88
2021/11/10 01:40:33;;;;;;;9.88;5.45;;;6.40;95.80;;;3.69;100.00;101448.38;5037031;28;20053;-88
2021/11/10 01:43:12;;;;;;;10.18;4.95;;;6.40;95.80;;;3.64;100.00;101450.56;5030228;28;20518;-87
2021/11/10 01:45:40;;;;;;;10.80;5.18;;;6.40;95.80;;;3.61;100.00;101446.25;5030093;28;20072;-87
2021/11/10 01:48:08;;;;;;;10.23;5.43;;;6.30;95.90;;;3.63;100.00;101448.84;5029403;28;20045;-87
2021/11/10 01:50:35;;;;;;;11.02;5.78;;;6.30;95.90;;;3.59;100.00;101441.97;5030000;28;20054;-87
2021/11/10 01:53:03;;;;;;;9.18;5.50;;;6.30;95.80;;;3.58;100.00;101443.81;5031137;28;20103;-88
2021/11/10 01:55:31;;;;;;;10.57;5.70;;;6.30;95.90;;;3.52;100.00;101439.75;5045680;28;20076;-87
2021/11/10 01:57:59;;;;;;;9.70;5.78;;;6.30;95.90;;;3.55;100.00;101448.56;5028972;28;20076;-87
2021/11/10 02:00:35;;;;;;;13.27;5.45;;;6.20;95.70;;;3.40;100.00;101442.50;5029682;28;20041;-87
2021/11/10 02:03:09;;;;;;;14.00;5.70;;;6.20;95.60;;;3.37;100.00;101438.22;5029773;28;20045;-88
2021/11/10 02:05:49;;;;;;;12.00;5.22;;;6.20;95.70;;;3.30;100.00;101434.28;5031434;28;20167;-87
2021/11/10 02:08:49;;;;;;;21.55;5.70;;;6.10;95.70;;;3.25;100.00;101428.38;5032300;28;20106;-87
2021/11/10 02:11:25;;;;;;;11.77;5.38;;;6.10;95.70;;;3.28;100.00;101422.78;5048356;28;20686;-87
2021/11/10 02:14:07;;;;;;;16.90;5.80;;;6.10;95.90;;;3.32;100.00;101414.34;5040899;28;20128;-87
2021/11/10 02:16:40;;;;;;;9.95;5.57;;;6.10;96.00;;;3.31;100.00;101414.44;5049602;28;20048;-86
2021/11/10 02:19:12;;;;;;;10.50;5.30;;;6.00;95.90;;;3.30;100.00;101405.53;5063819;28;20102;-87
2021/11/10 02:21:45;;;;;;;11.90;5.50;;;6.00;95.90;;;3.19;100.00;101408.16;5078884;28;20278;-87
2021/11/10 02:24:14;;;;;;;10.50;5.40;;;6.00;95.90;;;3.26;100.00;101411.28;5068710;28;20055;-87
2021/11/10 02:26:43;;;;;;;11.55;5.80;;;6.00;96.10;;;3.22;100.00;101407.06;5059809;28;20060;-87
2021/11/10 02:29:12;;;;;;;14.13;5.80;;;5.90;96.00;;;3.22;100.00;101407.06;5047702;28;20675;-86
2021/11/10 02:31:39;;;;;;;10.15;5.15;;;5.90;96.00;;;3.18;100.00;101401.09;5049941;28;20073;-88
2021/11/10 02:34:07;;;;;;;12.38;5.40;;;5.90;96.00;;;3.16;100.00;101410.22;5049331;28;20160;-88
2021/11/10 02:36:34;;;;;;;10.98;5.35;;;5.90;96.10;;;3.18;100.00;101410.97;5049091;28;20060;-87
2021/11/10 02:39:08;;;;;;;13.00;5.57;;;5.90;96.10;;;3.17;100.00;101403.88;5049792;28;20049;-87
2021/11/10 02:41:37;;;;;;;13.18;5.28;;;5.90;96.20;;;3.18;100.00;101405.59;5046555;28;20048;-87
2021/11/10 02:44:06;;;;;;;12.35;5.70;;;5.90;96.20;;;3.14;100.00;101394.19;5065419;28;20095;-87
2021/11/10 02:46:34;;;;;;;11.63;6.05;;;5.90;96.30;;;3.04;100.00;101399.41;5039587;28;20182;-87
2021/11/10 02:49:02;;;;;;;11.30;5.28;;;5.80;96.10;;;3.04;100.00;101398.56;5059705;28;20080;-87
2021/11/10 02:51:29;;;;;;;9.55;4.95;;;5.80;96.10;;;2.94;100.00;101409.97;5067429;28;20075;-87
2021/11/10 02:53:57;;;;;;;13.85;5.80;;;5.80;96.10;;;2.95;100.00;101397.38;5067858;28;20485;-87
2021/11/10 02:56:25;;;;;;;10.88;5.30;;;5.80;96.20;;;2.94;100.00;101403.75;5085946;28;20159;-87
2021/11/10 02:58:53;;;;;;;11.70;5.25;;;5.80;96.20;;;2.99;100.00;101396.22;5084832;28;20048;-88
2021/11/10 03:01:20;;;;;;;16.05;4.97;;;5.70;96.40;;;2.99;100.00;101401.59;5048960;28;20049;-87
2021/11/10 03:03:48;;;;;;;10.95;5.25;;;5.70;96.40;;;2.96;100.00;101401.81;5033655;28;20052;-87
2021/11/10 03:06:15;;;;;;;11.25;5.95;;;5.70;96.40;;;3.02;100.00;101400.50;5028455;28;20704;-87
2021/11/10 03:08:43;;;;;;;11.80;5.40;;;5.70;96.60;;;2.96;100.00;101401.81;5030047;28;20578;-87
2021/11/10 03:11:15;;;;;;;11.60;5.32;;;5.70;96.50;;;2.98;100.00;101415.16;5064742;28;20045;-87
2021/11/10 03:13:46;;;;;;;10.60;5.40;;;5.70;96.60;;;2.99;100.00;101398.91;5064758;28;20056;-87
2021/11/10 03:16:14;;;;;;;13.40;5.90;;;5.70;96.60;;;2.97;100.00;101411.59;5047148;28;20044;-88
2021/11/10 03:18:42;;;;;;;11.35;5.10;;;5.70;96.50;;;2.98;100.00;101415.16;5041859;28;20045;-87
2021/11/10 03:21:10;;;;;;;11.52;5.65;;;5.70;96.60;;;2.89;100.00;101406.78;5038098;28;20095;-87
2021/11/10 03:23:37;;;;;;;12.85;5.32;;;5.60;96.50;;;2.90;100.00;101408.50;5049832;28;20068;-88
2021/11/10 03:26:05;;;;;;;13.75;5.18;;;5.60;96.40;;;2.81;100.00;101419.91;5047983;28;20044;-87
2021/11/10 03:28:34;;;;;;;10.40;5.70;;;5.60;96.30;;;2.80;100.00;101418.22;5048972;28;20048;-87
2021/11/10 03:31:03;;;;;;;12.50;4.97;;;5.60;96.40;;;2.77;100.00;101412.19;5045591;28;20045;-87
2021/11/10 03:33:31;;;;;;;14.95;5.68;;;5.60;96.30;;;2.71;100.00;101417.03;5044916;28;20092;-87
2021/11/10 03:35:58;;;;;;;12.45;5.35;;;5.50;96.40;;;2.70;100.00;101412.66;5033664;28;20405;-88
2021/11/10 03:38:26;;;;;;;11.10;5.30;;;5.50;96.30;;;2.68;100.00;101417.25;5046990;28;20136;-87
2021/11/10 03:40:55;;;;;;;12.45;5.18;;;5.50;96.50;;;2.73;100.00;101415.09;5047664;28;20047;-87
2021/11/10 03:43:28;;;;;;;10.43;5.00;;;5.40;96.50;;;2.72;100.00;101413.41;5047592;28;20860;-88
2021/11/10 03:45:59;;;;;;;12.50;5.18;;;5.50;96.60;;;2.73;100.00;101412.41;5047715;28;20049;-87
2021/11/10 03:48:29;;;;;;;12.32;5.72;;;5.40;96.60;;;2.82;100.00;101407.34;5042364;28;20052;-87
2021/11/10 03:50:56;;;;;;;12.82;5.57;;;5.50;96.80;;;2.79;100.00;101404.88;5052447;28;20041;-86
2021/11/10 03:53:25;;;;;;;12.60;6.15;;;5.50;96.80;;;2.74;100.00;101415.94;5028832;28;20068;-87
2021/11/10 03:55:53;;;;;;;12.50;5.13;;;5.40;96.60;;;2.74;100.00;101411.47;5026943;28;20057;-86
2021/11/10 03:58:20;;;;;;;14.73;4.90;;;5.40;96.80;;;2.82;100.00;101418.09;5026932;28;20874;-87
2021/11/10 04:00:53;;;;;;;12.70;4.70;;;5.40;96.80;;;2.91;100.00;101412.03;5027471;28;20053;-87
2021/11/10 04:03:21;;;;;;;9.25;4.97;;;5.40;96.80;;;3.02;100.00;101412.09;5027347;28;20063;-87
2021/11/10 04:05:50;;;;;;;11.15;5.00;;;5.40;97.10;;;3.07;100.00;101409.09;5028729;28;20506;-88
2021/11/10 04:08:18;;;;;;;14.15;5.70;;;5.50;97.30;;;3.11;100.00;101416.81;5046515;28;20076;-88
2021/11/10 04:10:46;;;;;;;13.00;5.40;;;5.50;97.40;;;3.18;100.00;101421.72;5047079;28;20171;-87
2021/11/10 04:13:16;;;;;;;14.38;5.10;;;5.60;97.60;;;3.26;100.00;101409.44;5046938;28;20531;-87
2021/11/10 04:15:47;;;;;;;10.70;4.88;;;5.60;97.70;;;3.30;100.00;101410.06;5047020;28;20048;-87
2021/11/10 04:18:15;;;;;;;12.95;5.20;;;5.60;97.90;;;3.41;100.00;101409.22;5046369;28;20722;-87
2021/11/10 04:20:43;;;;;;;11.10;5.10;;;5.70;98.10;;;3.49;100.00;101398.75;5047113;28;20045;-87
2021/11/10 04:23:12;;;;;;;13.68;5.40;;;5.70;98.20;;;3.55;100.00;101400.97;5045883;28;20053;-87
2021/11/10 04:25:39;;;;;;;9.88;5.18;;;5.80;98.30;;;3.61;100.00;101403.19;5038808;28;20130;-87
2021/11/10 04:28:10;;;;;;;9.73;4.93;;;5.80;98.50;;;3.69;100.00;101406.19;5046378;28;20421;-88
2021/11/10 04:30:38;;;;;;;10.55;5.10;;;5.80;98.60;;;3.69;100.00;101395.41;5046905;28;20052;-88
2021/11/10 04:33:06;;;;;;;12.13;4.95;;;5.90;98.70;;;3.70;100.00;101396.25;5047069;28;20057;-87
2021/11/10 04:35:33;;;;;;;14.23;5.10;;;5.90;98.60;;;3.74;100.00;101389.66;5063530;28;20059;-87
2021/11/10 04:38:00;;;;;;;17.15;5.05;;;6.00;98.60;;;3.81;100.00;101392.72;5046156;28;20126;-87
2021/11/10 04:40:30;;;;;;;14.23;5.00;;;6.00;98.70;;;3.82;100.00;101406.06;5046020;28;20136;-87
2021/11/10 04:42:59;;;;;;;14.27;5.28;;;6.00;98.70;;;3.86;100.00;101402.16;5030735;28;20157;-88
2021/11/10 04:45:35;;;;;;;17.63;5.03;;;6.00;98.70;;;3.91;100.00;101399.97;5027202;28;20041;-87
2021/11/10 04:48:03;;;;;;;11.77;5.90;;;6.10;99.00;;;3.99;100.00;101403.91;5026304;28;20505;-87
2021/11/10 04:50:31;;;;;;;11.93;5.13;;;6.10;99.00;;;4.00;100.00;101414.56;5028537;28;20080;-87
2021/11/10 04:53:00;;;;;;;9.95;5.00;;;6.20;99.00;;;4.02;100.00;101418.00;5027063;28;20057;-87
2021/11/10 04:55:30;;;;;;;16.63;5.35;;;6.20;98.90;;;4.05;100.00;101422.28;5032531;28;20103;-88
2021/11/10 04:57:58;;;;;;;13.43;5.32;;;6.20;98.90;;;4.07;100.00;101418.50;5038223;28;20042;-87
2021/11/10 05:00:28;;;;;;;9.90;5.00;;;6.30;98.90;;;4.08;100.00;101400.50;5026613;28;20053;-87
2021/11/10 05:02:55;;;;;;;13.40;5.00;;;6.30;98.90;;;4.14;100.00;101385.69;5026623;28;20046;-87
2021/11/10 05:05:23;;;;;;;15.02;5.60;;;6.30;98.80;;;4.19;100.00;101381.66;5026677;28;20145;-87
2021/11/10 05:07:52;;;;;;;14.93;5.18;;;6.40;98.80;;;4.17;100.00;101378.22;5025836;28;20048;-87
2021/11/10 05:10:20;;;;;;;12.20;5.13;;;6.40;98.90;;;4.15;100.00;101376.59;5042399;28;20045;-87
2021/11/10 05:12:55;;;;;;;13.05;5.90;;;6.40;98.80;;;4.14;100.00;101378.47;5051357;28;20543;-87
2021/11/10 05:15:22;;;;;;;9.85;5.22;;;6.40;98.70;;;4.14;100.00;101389.22;5045802;28;20057;-87
2021/11/10 05:17:50;;;;;;;11.98;4.93;;;6.40;98.80;;;4.16;100.00;101387.28;5045425;28;20052;-87
2021/11/10 05:20:22;;;;;;;11.77;5.13;;;6.40;98.70;;;4.17;100.00;101386.31;5046434;28;20075;-84
2021/11/10 05:22:50;;;;;;;11.35;5.55;;;6.50;98.80;;;4.15;100.00;101380.19;5046442;28;20049;-86
2021/11/10 05:25:17;;;;;;;10.48;4.55;;;6.50;98.70;;;4.16;100.00;101375.66;5046128;28;20100;-85
2021/11/10 05:27:45;;;;;;;14.00;5.68;;;6.40;98.50;;;4.15;100.00;101369.41;5044764;28;20080;-85
2021/11/10 05:30:13;;;;;;;10.20;5.35;;;6.40;98.80;;;4.10;100.00;101366.22;5056872;22;20049;-80
2021/11/10 05:32:43;;;;;;;17.08;5.75;;;6.50;98.70;;;4.10;100.00;101363.53;5046221;28;20045;-80
2021/11/10 05:35:12;;;;;;;14.18;5.40;;;6.50;98.70;;;4.04;100.00;101366.69;5047840;28;20559;-80
2021/11/10 05:37:39;;;;;;;13.55;5.10;;;6.50;98.60;;;4.00;100.00;101374.16;5037946;28;20133;-80
2021/11/10 05:40:08;;;;;;;11.10;4.93;;;6.50;98.50;;;3.98;100.00;101364.47;5022579;28;20144;-81
2021/11/10 05:42:36;;;;;;;12.20;6.00;;;6.50;98.50;;;3.97;100.00;101378.94;5008264;28;20053;-80
2021/11/10 05:45:05;;;;;;;15.10;5.68;;;6.50;98.40;;;3.98;100.00;101402.19;5000138;28;20570;-80
2021/11/10 05:47:34;;;;;;;10.98;5.35;;;6.40;98.20;;;3.95;100.00;101397.06;5019915;28;20167;-80
2021/11/10 05:50:04;;;;;;;16.38;5.53;;;6.40;98.30;;;3.98;100.00;101399.47;5007891;28;20049;-80
2021/11/10 05:52:31;;;;;;;13.77;5.82;;;6.40;98.40;;;3.94;100.00;101424.94;5009473;28;20053;-81
2021/11/10 05:54:58;;;;;;;13.25;5.75;;;6.40;98.40;;;3.94;100.00;101424.94;5011688;28;20041;-81
2021/11/10 05:57:26;;;;;;;11.30;6.13;;;6.40;98.40;;;3.97;100.00;101416.63;5024541;28;20077;-81
2021/11/10 05:59:53;;;;;;;12.50;5.90;;;6.40;98.50;;;4.00;100.00;101414.56;5026170;28;20077;-81
2021/11/10 06:02:21;;;;;;;16.23;6.30;;;6.40;98.50;;;4.03;100.00;101418.84;5031161;28;20057;-79
2021/11/10 06:04:50;;;;;;;10.93;5.80;;;6.40;98.40;;;4.03;100.00;101413.47;5012939;28;20136;-79
2021/11/10 06:07:17;;;;;;;12.73;6.82;;;6.40;98.50;;;4.00;100.00;101398.41;5030509;28;20121;-79
2021/11/10 06:09:44;;;;;;;12.75;6.40;;;6.40;98.50;;;3.97;100.00;101393.25;5019263;28;20050;-79
2021/11/10 06:12:12;;;;;;;10.80;6.10;;;6.40;98.50;;;3.99;100.00;101390.44;5011221;28;20480;-80
2021/11/10 06:14:39;;;;;;;14.30;5.97;;;6.40;98.50;;;3.94;100.00;101385.44;4990485;28;20042;-80
2021/11/10 06:17:07;;;;;;;14.27;6.43;;;6.40;98.50;;;3.86;100.00;101391.38;5006817;28;20092;-80
2021/11/10 06:19:34;;;;;;;15.82;5.93;;;6.40;98.40;;;3.87;100.00;101392.25;5010396;28;20070;-79
2021/11/10 06:22:04;;;;;;;12.52;6.07;;;6.40;98.30;;;3.80;100.00;101399.09;5011058;28;20502;-80
2021/11/10 06:24:31;;;;;;;15.63;6.40;;;6.40;98.30;;;3.80;100.00;101402.63;5018200;28;20049;-79
2021/11/10 06:26:58;;;;;;;13.90;6.07;;;6.40;98.10;;;3.70;100.00;101402.50;4997517;28;20073;-80
2021/11/10 06:29:26;;;;;;;14.18;5.97;;;6.30;98.10;;;3.66;100.00;101402.84;5018217;28;20573;-80
2021/11/10 06:31:53;;;;;;;14.13;5.55;;;6.30;98.10;;;3.62;100.00;101402.22;5013562;28;20041;-80
2021/11/10 06:34:21;;;;;;;13.20;5.95;;;6.30;98.10;;;3.55;100.00;101413.59;5012460;28;20550;-79
2021/11/10 06:36:48;;;;;;;17.17;7.10;;;6.30;98.10;;;3.57;100.00;101422.41;5026366;28;20059;-79
2021/11/10 06:39:17;;;;;;;15.15;6.80;;;6.20;97.90;;;3.55;100.00;101405.50;5029744;28;20045;-79
2021/11/10 06:41:45;;;;;;;15.05;6.07;;;6.20;97.80;;;3.58;100.00;101400.75;5030333;28;20045;-79
2021/11/10 06:44:12;;;;;;;15.70;6.45;;;6.20;97.80;;;3.53;100.00;101406.47;5030234;28;20470;-80
2021/11/10 06:46:40;;;;;;;15.40;6.40;;;6.20;97.80;;;3.47;100.00;101404.25;5016598;28;20060;-79
2021/11/10 06:49:07;;;;;;;13.13;5.80;;;6.10;97.90;;;3.50;100.00;101417.50;5011931;28;20498;-80
2021/11/10 06:51:34;;;;;;;16.52;5.80;;;6.10;97.90;;;3.47;100.00;101417.72;5010410;28;20144;-79
2021/11/10 06:54:02;;;;;;;15.95;6.40;;;6.10;97.90;;;3.48;100.00;101402.41;5017175;28;21558;-80
2021/11/10 06:56:30;;;;;;;19.80;7.00;;;6.10;97.80;;;3.51;100.00;101404.88;5026135;28;20128;-80
2021/11/10 06:58:58;;;;;;;14.60;6.43;;;6.10;98.00;;;3.55;100.00;101410.91;5029384;28;20053;-80
2021/11/10 07:01:26;;;;;;;15.35;7.05;;;6.10;98.10;;;3.53;100.00;101411.00;5028374;28;20045;-80
2021/11/10 07:03:54;;;;;;;17.90;7.30;;;6.10;98.10;;;3.53;100.00;101408.31;5021658;28;20060;-79
2021/11/10 07:06:21;;;;;;;14.18;6.72;;;6.10;98.10;;;3.51;100.00;101397.66;5001874;28;20054;-80
2021/11/10 07:08:48;;;;;;;12.43;6.32;;;6.00;98.00;;;3.55;100.00;101394.75;5012386;28;20055;-80
2021/11/10 07:11:15;;;;;;;16.10;6.90;;;6.00;98.00;;;3.53;100.00;101400.25;5029798;28;20055;-79
2021/11/10 07:13:44;;;;;;;15.23;6.55;;;6.00;98.00;;;3.51;100.00;101400.34;5029417;28;20549;-79
2021/11/10 07:16:11;;;;;;;13.02;6.22;;;6.00;98.00;;;3.52;100.00;101396.69;5023768;28;20116;-79
2021/11/10 07:18:39;;;;;;;16.23;6.88;;;6.00;98.00;;;3.58;100.00;101397.19;5020454;28;20114;-79
2021/11/10 07:21:07;;;;;;;13.05;6.18;;;6.00;98.10;;;3.60;100.00;101406.88;5009776;28;20053;-79
2021/11/10 07:23:34;;;;;;;11.93;6.28;;;6.00;98.30;;;3.59;100.00;101407.84;5029574;28;20049;-80
2021/11/10 07:26:02;;;;;;;12.85;6.63;;;6.00;98.20;;;3.59;100.00;101409.69;5004376;28;20146;-79
2021/11/10 07:28:29;;;;;;;16.42;6.95;;;6.00;98.20;;;3.59;100.00;101415.06;5008922;28;20045;-79
2021/11/10 07:30:58;;;;;;;16.73;6.65;;;6.10;98.20;;;3.55;100.00;101411.75;5009359;28;20052;-80
2021/11/10 07:33:25;;;;;;;16.73;6.80;;;6.10;98.30;;;3.56;100.00;101417.97;5025279;28;20077;-79
2021/11/10 07:35:53;;;;;;;17.35;6.47;;;6.10;98.20;;;3.51;100.00;101429.94;5023020;28;20084;-79
2021/11/10 07:38:24;;;;;;;13.02;6.47;;;6.00;98.10;;;3.48;100.00;101429.31;5009250;28;20593;-79
2021/11/10 07:40:52;;;;;;;;;;;6.00;98.10;;;3.44;100.00;101417.94;4991872;28;20050;-79
2021/11/10 07:43:19;;;;;;;13.60;6.25;;;6.00;98.00;;;3.44;100.00;101423.31;5009314;28;19925;-79
2021/11/10 07:45:51;;;;;;;16.23;6.60;;;6.00;98.10;;;3.42;100.00;101416.34;5013364;28;20498;-79
2021/11/10 07:48:20;;;;;;;12.10;6.20;;;6.00;98.20;;;3.43;100.00;101413.53;5027772;28;20045;-79
2021/11/10 07:50:48;;;;;;;14.95;6.53;;;6.00;98.10;;;3.43;100.00;101427.00;5028938;28;20156;-79
2021/11/10 07:53:15;;;;;;;22.58;8.38;;;6.00;98.10;;;3.48;100.00;101443.66;5025215;28;20107;-80
2021/11/10 07:55:43;;;;;;;15.02;7.53;;;6.00;98.20;;;3.51;100.00;101447.94;5000726;28;20149;-79
2021/11/10 07:58:10;;;;;;;19.38;8.10;;;6.00;98.30;;;3.52;100.00;101445.13;5008520;28;20038;-79
2021/11/10 08:00:38;;;;;;;22.67;8.52;;;6.00;98.30;;;3.60;100.00;101443.69;5007925;28;20072;-79
2021/11/10 08:03:06;;;;;;;16.38;8.13;;;6.00;98.40;;;3.62;100.00;101447.13;5025970;28;20145;-79
2021/11/10 08:05:36;;;;;;;17.52;8.15;;;6.00;98.50;;;3.62;100.00;101442.59;5025517;28;20135;-79
2021/11/10 08:08:04;;;;;;;20.65;8.45;;;6.00;98.50;;;3.61;100.00;101450.78;5008298;28;20152;-79
2021/11/10 08:10:31;;;;;;;20.00;8.18;;;6.00;98.50;;;3.67;100.00;101453.88;5018706;28;20107;-79
2021/11/10 08:12:59;;;;;;;22.55;8.00;;;6.00;98.50;;;3.76;100.00;101460.41;5012643;28;20132;-79
2021/11/10 08:15:26;;;;;;;18.35;7.95;;;6.10;98.60;;;3.80;100.00;101466.41;5010077;28;20072;-79
2021/11/10 08:17:53;;;;;;;26.15;9.90;;;6.10;98.70;;;3.84;100.00;101473.25;5027302;28;20144;-79
2021/11/10 08:20:21;;;;;;;37.95;10.85;;;6.10;98.80;;;3.83;100.00;101483.19;5028759;28;20254;-80
2021/11/10 08:22:50;;;;;;;27.17;10.23;;;6.10;98.80;;;3.89;100.00;101474.63;5028000;28;20160;-79
2021/11/10 08:25:18;;;;;;;44.17;11.13;;;6.20;98.80;;;3.98;100.00;101466.81;5027364;28;20140;-79
2021/11/10 08:27:46;;;;;;;27.52;10.05;;;6.20;98.70;;;4.04;100.00;101464.53;4999149;28;20072;-79
2021/11/10 08:30:17;;;;;;;29.75;10.77;;;6.20;98.80;;;4.01;100.00;101463.91;5010158;28;20041;-79
2021/11/10 08:32:46;;;;;;;30.45;11.13;;;6.20;98.80;;;4.10;100.00;101465.88;5018745;28;20107;-79
2021/11/10 08:35:14;;;;;;;32.83;10.35;;;6.30;99.00;;;4.20;100.00;101461.47;5026982;28;20132;-79
2021/11/10 08:37:41;;;;;;;27.98;10.93;;;6.30;99.00;;;4.29;100.00;101451.81;5008010;28;20049;-79
2021/11/10 08:40:12;;;;;;;29.92;11.15;;;6.30;99.00;;;4.40;100.00;101454.53;5008491;28;20046;-79
2021/11/10 08:42:40;;;;;;;34.17;10.15;;;6.40;99.10;;;4.49;100.00;101453.81;5007682;28;20057;-79
2021/11/10 08:45:11;;;;;;;25.45;10.88;;;6.50;99.30;;;4.55;100.00;101463.25;5016493;28;20052;-79
2021/11/10 08:47:41;;;;;;;23.52;9.52;;;6.50;99.30;;;4.67;100.00;101459.56;5026403;28;20780;-80
2021/11/10 08:50:10;;;;;;;22.52;9.70;;;6.50;99.40;;;4.80;100.00;101450.50;5027766;28;20693;-78
2021/11/10 08:52:38;;;;;;;17.80;8.63;;;6.60;99.40;;;4.91;100.00;101442.38;5027164;28;20132;-79
2021/11/10 08:55:10;;;;;;;18.67;8.75;;;6.70;99.50;;;4.99;100.00;101442.63;5026979;28;20050;-78
2021/11/10 08:57:38;;;;;;;24.27;9.88;;;6.70;99.50;;;5.05;100.00;101460.16;5025561;28;20073;-78
2021/11/10 09:00:09;;;;;;;20.13;9.35;;;6.80;99.50;;;5.11;100.00;101464.19;5025492;28;20132;-78
2021/11/10 09:02:38;;;;;;;23.48;10.55;;;6.90;99.60;;;5.19;100.00;101469.78;5021235;28;20071;-78
2021/11/10 09:05:07;;;;;;;19.33;8.85;;;7.00;99.50;;;5.23;100.00;101458.59;5026667;28;20050;-79
2021/11/10 09:07:35;;;;;;;19.55;9.32;;;7.00;99.40;;;5.33;100.00;101457.84;5008011;28;20058;-79
2021/11/10 09:10:03;;;;;;;19.88;9.95;;;7.00;99.40;;;5.39;100.00;101455.53;5021059;28;20046;-78
2021/11/10 09:12:32;;;;;;;23.45;9.18;;;7.10;99.40;;;5.53;100.00;101458.91;5027761;28;20133;-78
2021/11/10 09:14:59;;;;;;;17.73;8.75;;;7.10;99.40;;;5.63;100.00;101468.78;5027009;28;20136;-78
2021/11/10 09:17:34;;;;;;;17.20;9.23;;;7.20;99.50;;;5.73;100.00;101462.63;5020639;28;20042;-78
2021/11/10 09:20:01;;;;;;;17.20;8.20;;;7.30;99.70;;;5.86;100.00;101466.88;5019453;28;20112;-78
2021/11/10 09:22:29;;;;;;;17.65;8.40;;;7.40;99.70;;;5.97;100.00;101462.41;5027580;28;20084;-78
2021/11/10 09:24:56;;;;;;;19.30;7.72;;;7.50;99.80;;;6.07;100.00;101457.91;5009115;28;20472;-78
2021/11/10 09:27:24;;;;;;;16.77;8.43;;;7.50;99.70;;;6.17;100.00;101442.66;5010711;28;20049;-79
2021/11/10 09:29:52;;;;;;;17.48;8.30;;;7.60;99.70;;;6.24;100.00;101446.53;5030331;28;20599;-78
2021/11/10 09:32:20;;;;;;;17.05;8.40;;;7.70;99.60;;;6.31;100.00;101448.69;5025215;28;20074;-78
2021/11/10 09:34:48;;;;;;;20.90;8.00;;;7.80;99.50;;;6.38;100.00;101450.72;5007147;28;20136;-79
2021/11/10 09:37:15;;;;;;;13.13;7.25;;;7.80;99.40;;;6.47;100.00;101457.16;5012964;28;20502;-78
2021/11/10 09:39:43;;;;;;;17.08;7.35;;;7.90;99.40;;;6.53;100.00;101461.19;5011054;28;20046;-78
2021/11/10 09:42:11;;;;;;;14.40;7.25;;;8.00;99.30;;;6.63;100.00;101448.56;5011523;28;20115;-79
2021/11/10 09:44:41;;;;;;;17.73;7.75;;;8.10;99.30;;;6.73;100.00;101437.78;5011507;28;20069;-79
2021/11/10 09:47:10;;;;;;;16.63;8.15;;;8.20;98.90;;;6.82;100.00;101442.38;5026412;28;20137;-78
2021/11/10 09:49:37;;;;;;;17.58;7.85;;;8.20;98.90;;;6.87;99.48;101442.81;5029365;28;20125;-78
2021/11/10 09:52:05;;;;;;;15.85;7.38;;;8.30;98.80;;;6.90;99.73;101430.88;5019213;28;20057;-79
2021/11/10 09:54:33;;;;;;;14.35;7.47;;;8.30;98.80;;;6.94;99.23;101435.84;5030251;28;20442;-81
2021/11/10 09:57:00;;;;;;;14.55;6.97;;;8.40;98.40;;;7.01;98.83;101441.59;5026905;28;20042;-80
2021/11/10 09:59:28;;;;;;;16.50;7.22;;;8.50;98.20;;;7.12;99.30;101435.19;5030417;28;20069;-81
2021/11/10 10:01:56;;;;;;;21.52;7.80;;;8.50;98.30;;;7.19;98.33;101429.06;5030928;28;20048;-80
2021/11/10 10:04:25;;;;;;;17.73;7.35;;;8.60;97.90;;;7.32;97.80;101426.09;5031243;28;20107;-80
2021/11/10 10:06:53;;;;;;;15.32;6.88;;;8.60;97.90;;;7.47;97.33;101431.09;5017507;28;20050;-80
2021/11/10 10:09:21;;;;;;;19.80;7.63;;;8.70;97.80;;;7.60;96.69;101431.69;5006221;28;20073;-81
2021/11/10 10:11:48;;;;;;;14.23;6.82;;;8.80;97.80;;;7.64;96.63;101420.41;5011157;28;20038;-81
2021/11/10 10:14:15;;;;;;;17.00;7.22;;;8.80;97.40;;;7.70;96.11;101426.25;5011104;28;20073;-81
2021/11/10 10:16:43;;;;;;;16.00;7.07;;;8.90;97.70;;;7.78;95.41;101420.97;5014942;28;20042;-81
2021/11/10 10:19:12;;;;;;;12.93;6.30;;;8.90;97.00;;;7.82;95.29;101419.66;5010471;28;20069;-80